MSC Maria Saveria — 3FLE8 — position and weather

sailwx.info

Track history (hours):
 
Tides and Currents Weather Stations Pressure Air Temp Water Temp Dewpoint Dewpoint Depression Visibility Wind Speed Wind Dir Waves Ship Positions

MSC Maria Saveria

Last reported at 2014-Jul-24 10:33 UTC. Time now 2014-Jul-24 10:48 UTC.
Position N 39°26' W 000°19'.

Length 366 m; draft 10.2 m.

Type: Ship (hazmat cat A). MMSI: 372400000.

Date/timePositionNaut miles runAvg speedWind from/ knotsBaromVisibWave heightAir tempDewpointWater temp
2014-Jul-24 10:33N 39°26' W 000°19'0 0.0
2014-Jul-24 09:33N 39°26' W 000°19'0 0.0
2014-Jul-24 08:33N 39°26' W 000°19'0 0.0
2014-Jul-24 07:33N 39°26' W 000°19'0 0.0
2014-Jul-24 06:33N 39°26' W 000°19'0 0.0
2014-Jul-24 05:33N 39°26' W 000°19'0 0.0
2014-Jul-24 04:33N 39°26' W 000°19'0 0.0
2014-Jul-24 03:30N 39°26' W 000°19'0 0.0
2014-Jul-24 02:33N 39°26' W 000°19'0 0.0
2014-Jul-24 01:33N 39°26' W 000°19'0 0.0
2014-Jul-24 00:33N 39°26' W 000°19'0 0.0
2014-Jul-23 23:33N 39°26' W 000°19'0 0.0
2014-Jul-23 22:33N 39°26' W 000°19'0 0.0
2014-Jul-23 21:30N 39°26' W 000°19'0 0.0
2014-Jul-23 20:33N 39°26' W 000°19'0 0.0
2014-Jul-23 19:33N 39°26' W 000°19'0 0.0
2014-Jul-23 18:33N 39°26' W 000°19'0 0.0
2014-Jul-23 17:33N 39°26' W 000°19'0 0.0
2014-Jul-23 16:33N 39°26' W 000°19'0 0.0
2014-Jul-23 15:33N 39°26' W 000°19'0 0.0
2014-Jul-23 14:33N 39°26' W 000°19'0 0.0
2014-Jul-23 13:33N 39°26' W 000°19'0 0.0
2014-Jul-23 12:33N 39°26' W 000°19'0 0.0
2014-Jul-23 11:33N 39°26' W 000°19'0 0.0
2014-Jul-23 10:33N 39°26' W 000°19'0 0.0
2014-Jul-23 09:33N 39°26' W 000°19'0 0.0
2014-Jul-23 08:33N 39°26' W 000°19'0 0.0
2014-Jul-23 07:33N 39°26' W 000°19'0 0.0
2014-Jul-23 06:34N 39°26' W 000°19'2 2.1
2014-Jul-23 05:32N 39°25' W 000°17'1 0.9
2014-Jul-23 04:33N 39°24' W 000°16'0 0.0
2014-Jul-23 03:15N 39°24' W 000°16'0 0.1
2014-Jul-23 02:21N 39°24' W 000°16'0 0.1
2014-Jul-23 01:33N 39°24' W 000°16'0 0.0
2014-Jul-23 00:27N 39°24' W 000°16'0 0.0
2014-Jul-22 20:24N 39°24' W 000°16'0 0.0
2014-Jul-22 19:33N 39°24' W 000°16'0 0.0
2014-Jul-22 18:33N 39°24' W 000°16'0 0.0
2014-Jul-22 17:33N 39°24' W 000°16'0 0.0
2014-Jul-22 16:15N 39°24' W 000°16'0 0.0
2014-Jul-22 09:18N 39°24' W 000°16'0 0.1
2014-Jul-22 07:33N 39°24' W 000°16'0 0.1
2014-Jul-22 06:33N 39°24' W 000°16'0 0.0
2014-Jul-22 05:21N 39°24' W 000°16'0 0.0
2014-Jul-22 04:33N 39°24' W 000°16'0 0.0
2014-Jul-22 03:33N 39°24' W 000°16'0 0.0
2014-Jul-22 02:30N 39°24' W 000°16'0 0.0
2014-Jul-22 01:18N 39°24' W 000°16'0 0.1
2014-Jul-21 23:30N 39°24' W 000°16'0 0.1
2014-Jul-21 22:33N 39°24' W 000°16'0 0.0
2014-Jul-21 17:33N 39°24' W 000°16'0 0.0
2014-Jul-21 14:09N 39°24' W 000°16'0 0.0
2014-Jul-21 13:30N 39°24' W 000°16'0 0.0
2014-Jul-21 12:27N 39°24' W 000°16'0 0.2
2014-Jul-21 11:27N 39°24' W 000°16'0 0.0
2014-Jul-21 10:21N 39°24' W 000°16'2 3.1
2014-Jul-21 09:33N 39°24' W 000°13'1212.2
2014-Jul-21 08:33N 39°28' E 000°02'2913.7
2014-Jul-21 06:26N 39°41' E 000°36'1315.2
2014-Jul-21 05:33N 39°48' E 000°50'1515.3
2014-Jul-21 04:34N 39°59' E 001°05'1616.2
2014-Jul-21 03:33N 40°12' E 001°17'1615.9
2014-Jul-21 02:33N 40°26' E 001°28'1615.6
2014-Jul-21 01:33N 40°39' E 001°39'1515.2
2014-Jul-21 00:33N 40°52' E 001°49'1515.2
2014-Jul-20 23:33N 41°05' E 002°00'1514.8
2014-Jul-20 22:33N 41°17' E 002°10'2 0.4
2014-Jul-20 18:10N 41°18' E 002°09'0 0.0
2014-Jul-20 17:16N 41°18' E 002°09'0 0.0
2014-Jul-20 16:22N 41°18' E 002°09'0 0.0
2014-Jul-20 15:28N 41°18' E 002°09'0 0.0
2014-Jul-20 14:28N 41°18' E 002°09'0 0.0
2014-Jul-20 13:22N 41°18' E 002°09'0 0.0
2014-Jul-20 12:28N 41°18' E 002°09'0 0.0
2014-Jul-20 11:22N 41°18' E 002°09'1 1.5
2014-Jul-20 10:33N 41°19' E 002°10'4 4.4
2014-Jul-20 09:33N 41°16' E 002°14'1010.2
2014-Jul-20 08:33N 41°20' E 002°26'1111.2
2014-Jul-20 07:33N 41°26' E 002°39'1111.3
2014-Jul-20 06:33N 41°32' E 002°52'1413.5
2014-Jul-20 05:33N 41°39' E 003°07'1313.5
2014-Jul-20 04:33N 41°46' E 003°22'1413.6
2014-Jul-20 03:30N 41°56' E 003°36'1313.9
2014-Jul-20 02:33N 42°07' E 003°47'1413.9
2014-Jul-20 01:33N 42°17' E 003°59'1413.5
2014-Jul-20 00:33N 42°28' E 004°11'1313.4
2014-Jul-19 23:33N 42°38' E 004°22'1313.0
2014-Jul-19 22:33N 42°48' E 004°34'1312.8
2014-Jul-19 21:31N 42°58' E 004°45'1212.7
2014-Jul-19 20:33N 43°08' E 004°55'1010.3
2014-Jul-19 19:33N 43°18' E 004°59'8 8.0
2014-Jul-19 18:34N 43°24' E 004°52'2 1.6
2014-Jul-19 17:31N 43°25' E 004°50'0 0.0
2014-Jul-19 16:31N 43°25' E 004°50'0 0.0
2014-Jul-19 15:33N 43°25' E 004°50'0 0.0
2014-Jul-19 14:33N 43°25' E 004°50'0 0.0
2014-Jul-19 13:33N 43°25' E 004°50'0 0.0
2014-Jul-19 12:33N 43°25' E 004°50'0 0.0
2014-Jul-19 11:33N 43°25' E 004°50'0 0.0
2014-Jul-19 10:33N 43°25' E 004°50'0 0.0
2014-Jul-19 09:33N 43°25' E 004°50'0 0.0
2014-Jul-19 08:33N 43°25' E 004°50'0 0.0
2014-Jul-19 07:33N 43°25' E 004°50'0 0.0
2014-Jul-19 06:33N 43°25' E 004°50'0 0.0
2014-Jul-19 05:33N 43°25' E 004°50'0 0.0
2014-Jul-19 04:33N 43°25' E 004°50'0 0.0
2014-Jul-19 03:33N 43°25' E 004°50'4 3.8
2014-Jul-19 02:33N 43°24' E 004°55'9 8.7
2014-Jul-19 01:33N 43°16' E 005°01'9 9.4
2014-Jul-19 00:33N 43°09' E 005°09'1413.8
2014-Jul-18 23:33N 43°02' E 005°25'1515.2
2014-Jul-18 22:33N 42°56' E 005°44'1514.9
2014-Jul-18 21:33N 42°51' E 006°03'1515.4
2014-Jul-18 20:33N 42°52' E 006°24'1515.1
2014-Jul-18 19:33N 42°54' E 006°45'1514.6
2014-Jul-18 18:33N 42°59' E 007°04'1414.2
2014-Jul-18 17:34N 43°05' E 007°21'1514.6
2014-Jul-18 16:34N 43°12' E 007°39'1515.0
2014-Jul-18 15:33N 43°19' E 007°57'1515.0
2014-Jul-18 14:33N 43°26' E 008°16'1514.7
2014-Jul-18 13:33N 43°32' E 008°34'1514.6
2014-Jul-18 12:34N 43°39' E 008°52'1414.5
2014-Jul-18 11:34N 43°46' E 009°10'1515.1
2014-Jul-18 10:33N 43°52' E 009°28'1514.8
2014-Jul-18 09:33N 43°59' E 009°47'8 7.9
2014-Jul-18 08:33N 44°06' E 009°51'0 0.0
2014-Jul-18 07:33N 44°06' E 009°51'0 0.0
2014-Jul-18 06:33N 44°06' E 009°51'0 0.0
2014-Jul-18 05:32N 44°06' E 009°51'0 0.0
2014-Jul-18 04:33N 44°06' E 009°51'0 0.0
2014-Jul-18 03:33N 44°06' E 009°51'0 0.0
2014-Jul-18 02:33N 44°06' E 009°51'0 0.0
2014-Jul-18 01:33N 44°06' E 009°51'0 0.0
2014-Jul-18 00:33N 44°06' E 009°51'0 0.0
2014-Jul-17 23:33N 44°06' E 009°51'0 0.0
2014-Jul-17 22:33N 44°06' E 009°51'0 0.0
2014-Jul-17 21:33N 44°06' E 009°51'0 0.0
2014-Jul-17 20:33N 44°06' E 009°51'0 0.0
2014-Jul-17 19:33N 44°06' E 009°51'0 0.0
2014-Jul-17 18:33N 44°06' E 009°51'0 0.0
2014-Jul-17 17:33N 44°06' E 009°51'0 0.0
2014-Jul-17 16:32N 44°06' E 009°51'0 0.0
2014-Jul-17 15:32N 44°06' E 009°51'0 0.0
2014-Jul-17 14:32N 44°06' E 009°51'0 0.0
2014-Jul-17 13:32N 44°06' E 009°51'0 0.0
2014-Jul-17 12:32N 44°06' E 009°51'0 0.0
2014-Jul-17 11:32N 44°06' E 009°51'0 0.0
2014-Jul-17 10:32N 44°06' E 009°51'0 0.0
2014-Jul-17 09:32N 44°06' E 009°51'0 0.0
2014-Jul-17 08:33N 44°06' E 009°51'0 0.0
2014-Jul-17 07:29N 44°06' E 009°51'0 0.0
2014-Jul-17 06:29N 44°06' E 009°51'0 0.0
2014-Jul-17 05:32N 44°06' E 009°51'0 0.3
2014-Jul-17 04:33N 44°06' E 009°51'6 6.1
2014-Jul-17 03:33N 44°00' E 009°54'1212.3
2014-Jul-17 02:33N 43°53' E 009°40'1515.5
2014-Jul-17 01:33N 43°45' E 009°22'1616.1
2014-Jul-17 00:33N 43°36' E 009°03'1616.3
2014-Jul-16 23:34N 43°28' E 008°44'1616.3
2014-Jul-16 22:33N 43°19' E 008°24'1616.2
2014-Jul-16 21:33N 43°11' E 008°06'1616.0
2014-Jul-16 20:33N 43°02' E 007°47'1615.9
2014-Jul-16 19:33N 42°52' E 007°30'1615.9
2014-Jul-16 18:33N 42°44' E 007°11'1616.1
2014-Jul-16 17:33N 42°37' E 006°52'1716.8
2014-Jul-16 16:33N 42°28' E 006°32'1818.3
2014-Jul-16 15:33N 42°18' E 006°11'1818.2
2014-Jul-16 14:33N 42°09' E 005°51'1817.8
2014-Jul-16 13:33N 41°59' E 005°30'1817.8
2014-Jul-16 12:33N 41°50' E 005°10'1817.7
2014-Jul-16 11:33N 41°41' E 004°50'1817.9
2014-Jul-16 10:33N 41°31' E 004°30'1817.5
2014-Jul-16 09:33N 41°22' E 004°10'1717.5
2014-Jul-16 08:33N 41°13' E 003°50'1817.7
2014-Jul-16 07:33N 41°03' E 003°30'1816.8
2014-Jul-16 06:29N 40°54' E 003°10'1516.6
2014-Jul-16 05:33N 40°45' E 002°53'1716.5
2014-Jul-16 04:33N 40°36' E 002°35'1716.8
2014-Jul-16 03:33N 40°28' E 002°15'1717.0
2014-Jul-16 02:33N 40°19' E 001°56'1818.3
2014-Jul-16 01:33N 40°10' E 001°36'1615.5
2014-Jul-16 00:33N 40°01' E 001°19'1616.3
2014-Jul-15 23:33N 39°53' E 001°00'1716.7
2014-Jul-15 22:33N 39°44' E 000°42'4615.4
2014-Jul-15 19:33N 39°26' W 000°13'3 2.7
2014-Jul-15 18:33N 39°25' W 000°16'3 2.9
2014-Jul-15 17:33N 39°26' W 000°20'0 0.0
2014-Jul-15 16:33N 39°26' W 000°20'0 0.0
2014-Jul-15 15:33N 39°26' W 000°20'0 0.0
2014-Jul-15 14:30N 39°26' W 000°20'0 0.0
2014-Jul-15 13:33N 39°26' W 000°20'0 0.0
2014-Jul-15 12:33N 39°26' W 000°20'0 0.0
2014-Jul-15 11:33N 39°26' W 000°20'0 0.0
2014-Jul-15 10:33N 39°26' W 000°20'0 0.0
2014-Jul-15 09:33N 39°26' W 000°20'0 0.0
2014-Jul-15 08:33N 39°26' W 000°20'0 0.0
2014-Jul-15 07:33N 39°26' W 000°20'0 0.0
2014-Jul-15 06:33N 39°26' W 000°20'0 0.0
2014-Jul-15 05:06N 39°26' W 000°20'0 0.0
2014-Jul-15 04:30N 39°26' W 000°20'0 0.0
2014-Jul-15 03:15N 39°26' W 000°20'0 0.0
2014-Jul-15 02:33N 39°26' W 000°20'0 0.0
2014-Jul-15 01:33N 39°26' W 000°20'0 0.0
2014-Jul-15 00:27N 39°26' W 000°20'0 0.0
2014-Jul-14 23:33N 39°26' W 000°20'0 0.0
2014-Jul-14 22:33N 39°26' W 000°20'0 0.0
2014-Jul-14 21:33N 39°26' W 000°20'0 0.0
2014-Jul-14 20:33N 39°26' W 000°20'0 0.0
2014-Jul-14 19:33N 39°26' W 000°20'0 0.0
2014-Jul-14 18:33N 39°26' W 000°20'0 0.1
2014-Jul-14 17:34N 39°26' W 000°19'4 4.2
2014-Jul-14 16:34N 39°25' W 000°14'3 3.0
2014-Jul-14 15:34N 39°24' W 000°11'5618.5
2014-Jul-14 12:32N 39°15' E 001°01'4937.3
2014-Jul-14 11:13N 39°08' E 002°04'  
Track history (hours):
 
Tides and Currents Weather Stations Pressure Air Temp Water Temp Dewpoint Dewpoint Depression Visibility Wind Speed Wind Dir Waves Ship Positions

MSC Maria Saveria

Last reported at 2014-Jul-24 10:33 UTC. Time now 2014-Jul-24 10:48 UTC.
Position N 39°26' W 000°19'.

Length 366 m; draft 10.2 m.

Type: Ship (hazmat cat A). MMSI: 372400000.

Date/timePositionNaut miles runAvg speedWind from/ knotsBaromVisibWave heightAir tempDewpointWater temp
2014-Jul-24 10:33N 39°26' W 000°19'0 0.0
2014-Jul-24 09:33N 39°26' W 000°19'0 0.0
2014-Jul-24 08:33N 39°26' W 000°19'0 0.0
2014-Jul-24 07:33N 39°26' W 000°19'0 0.0
2014-Jul-24 06:33N 39°26' W 000°19'0 0.0
2014-Jul-24 05:33N 39°26' W 000°19'0 0.0
2014-Jul-24 04:33N 39°26' W 000°19'0 0.0
2014-Jul-24 03:30N 39°26' W 000°19'0 0.0
2014-Jul-24 02:33N 39°26' W 000°19'0 0.0
2014-Jul-24 01:33N 39°26' W 000°19'0 0.0
2014-Jul-24 00:33N 39°26' W 000°19'0 0.0
2014-Jul-23 23:33N 39°26' W 000°19'0 0.0
2014-Jul-23 22:33N 39°26' W 000°19'0 0.0
2014-Jul-23 21:30N 39°26' W 000°19'0 0.0
2014-Jul-23 20:33N 39°26' W 000°19'0 0.0
2014-Jul-23 19:33N 39°26' W 000°19'0 0.0
2014-Jul-23 18:33N 39°26' W 000°19'0 0.0
2014-Jul-23 17:33N 39°26' W 000°19'0 0.0
2014-Jul-23 16:33N 39°26' W 000°19'0 0.0
2014-Jul-23 15:33N 39°26' W 000°19'0 0.0
2014-Jul-23 14:33N 39°26' W 000°19'0 0.0
2014-Jul-23 13:33N 39°26' W 000°19'0 0.0
2014-Jul-23 12:33N 39°26' W 000°19'0 0.0
2014-Jul-23 11:33N 39°26' W 000°19'0 0.0
2014-Jul-23 10:33N 39°26' W 000°19'0 0.0
2014-Jul-23 09:33N 39°26' W 000°19'0 0.0
2014-Jul-23 08:33N 39°26' W 000°19'0 0.0
2014-Jul-23 07:33N 39°26' W 000°19'0 0.0
2014-Jul-23 06:34N 39°26' W 000°19'2 2.1
2014-Jul-23 05:32N 39°25' W 000°17'1 0.9
2014-Jul-23 04:33N 39°24' W 000°16'0 0.0
2014-Jul-23 03:15N 39°24' W 000°16'0 0.1
2014-Jul-23 02:21N 39°24' W 000°16'0 0.1
2014-Jul-23 01:33N 39°24' W 000°16'0 0.0
2014-Jul-23 00:27N 39°24' W 000°16'0 0.0
2014-Jul-22 20:24N 39°24' W 000°16'0 0.0
2014-Jul-22 19:33N 39°24' W 000°16'0 0.0
2014-Jul-22 18:33N 39°24' W 000°16'0 0.0
2014-Jul-22 17:33N 39°24' W 000°16'0 0.0
2014-Jul-22 16:15N 39°24' W 000°16'0 0.0
2014-Jul-22 09:18N 39°24' W 000°16'0 0.1
2014-Jul-22 07:33N 39°24' W 000°16'0 0.1
2014-Jul-22 06:33N 39°24' W 000°16'0 0.0
2014-Jul-22 05:21N 39°24' W 000°16'0 0.0
2014-Jul-22 04:33N 39°24' W 000°16'0 0.0
2014-Jul-22 03:33N 39°24' W 000°16'0 0.0
2014-Jul-22 02:30N 39°24' W 000°16'0 0.0
2014-Jul-22 01:18N 39°24' W 000°16'0 0.1
2014-Jul-21 23:30N 39°24' W 000°16'0 0.1
2014-Jul-21 22:33N 39°24' W 000°16'0 0.0
2014-Jul-21 17:33N 39°24' W 000°16'0 0.0
2014-Jul-21 14:09N 39°24' W 000°16'0 0.0
2014-Jul-21 13:30N 39°24' W 000°16'0 0.0
2014-Jul-21 12:27N 39°24' W 000°16'0 0.2
2014-Jul-21 11:27N 39°24' W 000°16'0 0.0
2014-Jul-21 10:21N 39°24' W 000°16'2 3.1
2014-Jul-21 09:33N 39°24' W 000°13'1212.2
2014-Jul-21 08:33N 39°28' E 000°02'2913.7
2014-Jul-21 06:26N 39°41' E 000°36'1315.2
2014-Jul-21 05:33N 39°48' E 000°50'1515.3
2014-Jul-21 04:34N 39°59' E 001°05'1616.2
2014-Jul-21 03:33N 40°12' E 001°17'1615.9
2014-Jul-21 02:33N 40°26' E 001°28'1615.6
2014-Jul-21 01:33N 40°39' E 001°39'1515.2
2014-Jul-21 00:33N 40°52' E 001°49'1515.2
2014-Jul-20 23:33N 41°05' E 002°00'1514.8
2014-Jul-20 22:33N 41°17' E 002°10'2 0.4
2014-Jul-20 18:10N 41°18' E 002°09'0 0.0
2014-Jul-20 17:16N 41°18' E 002°09'0 0.0
2014-Jul-20 16:22N 41°18' E 002°09'0 0.0
2014-Jul-20 15:28N 41°18' E 002°09'0 0.0
2014-Jul-20 14:28N 41°18' E 002°09'0 0.0
2014-Jul-20 13:22N 41°18' E 002°09'0 0.0
2014-Jul-20 12:28N 41°18' E 002°09'0 0.0
2014-Jul-20 11:22N 41°18' E 002°09'1 1.5
2014-Jul-20 10:33N 41°19' E 002°10'4 4.4
2014-Jul-20 09:33N 41°16' E 002°14'1010.2
2014-Jul-20 08:33N 41°20' E 002°26'1111.2
2014-Jul-20 07:33N 41°26' E 002°39'1111.3
2014-Jul-20 06:33N 41°32' E 002°52'1413.5
2014-Jul-20 05:33N 41°39' E 003°07'1313.5
2014-Jul-20 04:33N 41°46' E 003°22'1413.6
2014-Jul-20 03:30N 41°56' E 003°36'1313.9
2014-Jul-20 02:33N 42°07' E 003°47'1413.9
2014-Jul-20 01:33N 42°17' E 003°59'1413.5
2014-Jul-20 00:33N 42°28' E 004°11'1313.4
2014-Jul-19 23:33N 42°38' E 004°22'1313.0
2014-Jul-19 22:33N 42°48' E 004°34'1312.8
2014-Jul-19 21:31N 42°58' E 004°45'1212.7
2014-Jul-19 20:33N 43°08' E 004°55'1010.3
2014-Jul-19 19:33N 43°18' E 004°59'8 8.0
2014-Jul-19 18:34N 43°24' E 004°52'2 1.6
2014-Jul-19 17:31N 43°25' E 004°50'0 0.0
2014-Jul-19 16:31N 43°25' E 004°50'0 0.0
2014-Jul-19 15:33N 43°25' E 004°50'0 0.0
2014-Jul-19 14:33N 43°25' E 004°50'0 0.0
2014-Jul-19 13:33N 43°25' E 004°50'0 0.0
2014-Jul-19 12:33N 43°25' E 004°50'0 0.0
2014-Jul-19 11:33N 43°25' E 004°50'0 0.0
2014-Jul-19 10:33N 43°25' E 004°50'0 0.0
2014-Jul-19 09:33N 43°25' E 004°50'0 0.0
2014-Jul-19 08:33N 43°25' E 004°50'0 0.0
2014-Jul-19 07:33N 43°25' E 004°50'0 0.0
2014-Jul-19 06:33N 43°25' E 004°50'0 0.0
2014-Jul-19 05:33N 43°25' E 004°50'0 0.0
2014-Jul-19 04:33N 43°25' E 004°50'0 0.0
2014-Jul-19 03:33N 43°25' E 004°50'4 3.8
2014-Jul-19 02:33N 43°24' E 004°55'9 8.7
2014-Jul-19 01:33N 43°16' E 005°01'9 9.4
2014-Jul-19 00:33N 43°09' E 005°09'1413.8
2014-Jul-18 23:33N 43°02' E 005°25'1515.2
2014-Jul-18 22:33N 42°56' E 005°44'1514.9
2014-Jul-18 21:33N 42°51' E 006°03'1515.4
2014-Jul-18 20:33N 42°52' E 006°24'1515.1
2014-Jul-18 19:33N 42°54' E 006°45'1514.6
2014-Jul-18 18:33N 42°59' E 007°04'1414.2
2014-Jul-18 17:34N 43°05' E 007°21'1514.6
2014-Jul-18 16:34N 43°12' E 007°39'1515.0
2014-Jul-18 15:33N 43°19' E 007°57'1515.0
2014-Jul-18 14:33N 43°26' E 008°16'1514.7
2014-Jul-18 13:33N 43°32' E 008°34'1514.6
2014-Jul-18 12:34N 43°39' E 008°52'1414.5
2014-Jul-18 11:34N 43°46' E 009°10'1515.1
2014-Jul-18 10:33N 43°52' E 009°28'1514.8
2014-Jul-18 09:33N 43°59' E 009°47'8 7.9
2014-Jul-18 08:33N 44°06' E 009°51'0 0.0
2014-Jul-18 07:33N 44°06' E 009°51'0 0.0
2014-Jul-18 06:33N 44°06' E 009°51'0 0.0
2014-Jul-18 05:32N 44°06' E 009°51'0 0.0
2014-Jul-18 04:33N 44°06' E 009°51'0 0.0
2014-Jul-18 03:33N 44°06' E 009°51'0 0.0
2014-Jul-18 02:33N 44°06' E 009°51'0 0.0
2014-Jul-18 01:33N 44°06' E 009°51'0 0.0
2014-Jul-18 00:33N 44°06' E 009°51'0 0.0
2014-Jul-17 23:33N 44°06' E 009°51'0 0.0
2014-Jul-17 22:33N 44°06' E 009°51'0 0.0
2014-Jul-17 21:33N 44°06' E 009°51'0 0.0
2014-Jul-17 20:33N 44°06' E 009°51'0 0.0
2014-Jul-17 19:33N 44°06' E 009°51'0 0.0
2014-Jul-17 18:33N 44°06' E 009°51'0 0.0
2014-Jul-17 17:33N 44°06' E 009°51'0 0.0
2014-Jul-17 16:32N 44°06' E 009°51'0 0.0
2014-Jul-17 15:32N 44°06' E 009°51'0 0.0
2014-Jul-17 14:32N 44°06' E 009°51'0 0.0
2014-Jul-17 13:32N 44°06' E 009°51'0 0.0
2014-Jul-17 12:32N 44°06' E 009°51'0 0.0
2014-Jul-17 11:32N 44°06' E 009°51'0 0.0
2014-Jul-17 10:32N 44°06' E 009°51'0 0.0
2014-Jul-17 09:32N 44°06' E 009°51'0 0.0
2014-Jul-17 08:33N 44°06' E 009°51'0 0.0
2014-Jul-17 07:29N 44°06' E 009°51'0 0.0
2014-Jul-17 06:29N 44°06' E 009°51'0 0.0
2014-Jul-17 05:32N 44°06' E 009°51'0 0.3
2014-Jul-17 04:33N 44°06' E 009°51'6 6.1
2014-Jul-17 03:33N 44°00' E 009°54'1212.3
2014-Jul-17 02:33N 43°53' E 009°40'1515.5
2014-Jul-17 01:33N 43°45' E 009°22'1616.1
2014-Jul-17 00:33N 43°36' E 009°03'1616.3
2014-Jul-16 23:34N 43°28' E 008°44'1616.3
2014-Jul-16 22:33N 43°19' E 008°24'1616.2
2014-Jul-16 21:33N 43°11' E 008°06'1616.0
2014-Jul-16 20:33N 43°02' E 007°47'1615.9
2014-Jul-16 19:33N 42°52' E 007°30'1615.9
2014-Jul-16 18:33N 42°44' E 007°11'1616.1
2014-Jul-16 17:33N 42°37' E 006°52'1716.8
2014-Jul-16 16:33N 42°28' E 006°32'1818.3
2014-Jul-16 15:33N 42°18' E 006°11'1818.2
2014-Jul-16 14:33N 42°09' E 005°51'1817.8
2014-Jul-16 13:33N 41°59' E 005°30'1817.8
2014-Jul-16 12:33N 41°50' E 005°10'1817.7
2014-Jul-16 11:33N 41°41' E 004°50'1817.9
2014-Jul-16 10:33N 41°31' E 004°30'1817.5
2014-Jul-16 09:33N 41°22' E 004°10'1717.5
2014-Jul-16 08:33N 41°13' E 003°50'1817.7
2014-Jul-16 07:33N 41°03' E 003°30'1816.8
2014-Jul-16 06:29N 40°54' E 003°10'1516.6
2014-Jul-16 05:33N 40°45' E 002°53'1716.5
2014-Jul-16 04:33N 40°36' E 002°35'1716.8
2014-Jul-16 03:33N 40°28' E 002°15'1717.0
2014-Jul-16 02:33N 40°19' E 001°56'1818.3
2014-Jul-16 01:33N 40°10' E 001°36'1615.5
2014-Jul-16 00:33N 40°01' E 001°19'1616.3
2014-Jul-15 23:33N 39°53' E 001°00'1716.7
2014-Jul-15 22:33N 39°44' E 000°42'4615.4
2014-Jul-15 19:33N 39°26' W 000°13'3 2.7
2014-Jul-15 18:33N 39°25' W 000°16'3 2.9
2014-Jul-15 17:33N 39°26' W 000°20'0 0.0
2014-Jul-15 16:33N 39°26' W 000°20'0 0.0
2014-Jul-15 15:33N 39°26' W 000°20'0 0.0
2014-Jul-15 14:30N 39°26' W 000°20'0 0.0
2014-Jul-15 13:33N 39°26' W 000°20'0 0.0
2014-Jul-15 12:33N 39°26' W 000°20'0 0.0
2014-Jul-15 11:33N 39°26' W 000°20'0 0.0
2014-Jul-15 10:33N 39°26' W 000°20'0 0.0
2014-Jul-15 09:33N 39°26' W 000°20'0 0.0
2014-Jul-15 08:33N 39°26' W 000°20'0 0.0
2014-Jul-15 07:33N 39°26' W 000°20'0 0.0
2014-Jul-15 06:33N 39°26' W 000°20'0 0.0
2014-Jul-15 05:06N 39°26' W 000°20'0 0.0
2014-Jul-15 04:30N 39°26' W 000°20'0 0.0
2014-Jul-15 03:15N 39°26' W 000°20'0 0.0
2014-Jul-15 02:33N 39°26' W 000°20'0 0.0
2014-Jul-15 01:33N 39°26' W 000°20'0 0.0
2014-Jul-15 00:27N 39°26' W 000°20'0 0.0
2014-Jul-14 23:33N 39°26' W 000°20'0 0.0
2014-Jul-14 22:33N 39°26' W 000°20'0 0.0
2014-Jul-14 21:33N 39°26' W 000°20'0 0.0
2014-Jul-14 20:33N 39°26' W 000°20'0 0.0
2014-Jul-14 19:33N 39°26' W 000°20'0 0.0
2014-Jul-14 18:33N 39°26' W 000°20'0 0.1
2014-Jul-14 17:34N 39°26' W 000°19'4 4.2
2014-Jul-14 16:34N 39°25' W 000°14'3 3.0
2014-Jul-14 15:34N 39°24' W 000°11'5618.5
2014-Jul-14 12:32N 39°15' E 001°01'4937.3
2014-Jul-14 11:13N 39°08' E 002°04'  

Dump ship's entire track history